DLH812 EDDM-EDDS
Flight info
| Callsign | DLH812 |
|---|---|
| Flight time | 0h 23m |
| Altitude | 16000 |
| Route | RIDAR6S RIDAR L173 DODIL T127 TEKSI TEKSI1W |
| Aircraft | A321/M-SDE3FGHIRWY/LB1 |
Departure
| Time | 2026-05-05 15:11 |
|---|---|
| Airport | Munich Airport (EDDM) |
Arrival
| Time | 2026-05-05 15:34 |
|---|---|
| Airport | Stuttgart Airport (EDDS) |
| Time | Latitude | Longitude | Altitude | Speed | Heading |
|---|---|---|---|---|---|
| 2026-05-05 14:47 | 48.35289 | 11.80289 | 1476 ft | 0 kts | 83° |
| 2026-05-05 14:56 | 48.35287 | 11.80264 | 1474 ft | 4 kts | 85° |
| 2026-05-05 14:56 | 48.35287 | 11.80225 | 1475 ft | 4 kts | 109° |
| 2026-05-05 14:56 | 48.35299 | 11.80203 | 1475 ft | 1 kts | 173° |
| 2026-05-05 14:59 | 48.35286 | 11.80205 | 1473 ft | 4 kts | 174° |
| 2026-05-05 14:59 | 48.35248 | 11.80211 | 1479 ft | 7 kts | 173° |
| 2026-05-05 15:00 | 48.35202 | 11.80219 | 1474 ft | 7 kts | 174° |
| 2026-05-05 15:00 | 48.35170 | 11.80224 | 1483 ft | 7 kts | 174° |
| 2026-05-05 15:00 | 48.35112 | 11.80203 | 1475 ft | 6 kts | 231° |
| 2026-05-05 15:00 | 48.35105 | 11.80138 | 1485 ft | 7 kts | 264° |
| 2026-05-05 15:01 | 48.35099 | 11.80051 | 1471 ft | 10 kts | 263° |
| 2026-05-05 15:01 | 48.35090 | 11.79943 | 1485 ft | 11 kts | 263° |
| 2026-05-05 15:01 | 48.35082 | 11.79833 | 1473 ft | 11 kts | 263° |
| 2026-05-05 15:01 | 48.35073 | 11.79722 | 1481 ft | 11 kts | 263° |
| 2026-05-05 15:02 | 48.35113 | 11.79650 | 1484 ft | 10 kts | 351° |
| 2026-05-05 15:02 | 48.35184 | 11.79637 | 1484 ft | 11 kts | 353° |
| 2026-05-05 15:02 | 48.35275 | 11.79621 | 1477 ft | 14 kts | 353° |
| 2026-05-05 15:02 | 48.35370 | 11.79604 | 1474 ft | 14 kts | 353° |
| 2026-05-05 15:03 | 48.35464 | 11.79587 | 1480 ft | 14 kts | 353° |
| 2026-05-05 15:03 | 48.35559 | 11.79570 | 1484 ft | 14 kts | 353° |
| 2026-05-05 15:03 | 48.35654 | 11.79553 | 1478 ft | 14 kts | 353° |
| 2026-05-05 15:03 | 48.35749 | 11.79536 | 1476 ft | 14 kts | 353° |
| 2026-05-05 15:04 | 48.35845 | 11.79522 | 1473 ft | 14 kts | 354° |
| 2026-05-05 15:04 | 48.35941 | 11.79506 | 1485 ft | 14 kts | 353° |
| 2026-05-05 15:04 | 48.36035 | 11.79489 | 1480 ft | 14 kts | 353° |
| 2026-05-05 15:04 | 48.36132 | 11.79472 | 1480 ft | 12 kts | 353° |
| 2026-05-05 15:05 | 48.36221 | 11.79568 | 1485 ft | 12 kts | 82° |
| 2026-05-05 15:05 | 48.36234 | 11.79713 | 1480 ft | 16 kts | 82° |
| 2026-05-05 15:05 | 48.36248 | 11.79906 | 1485 ft | 21 kts | 85° |
| 2026-05-05 15:06 | 48.36264 | 11.80133 | 1485 ft | 22 kts | 84° |
| 2026-05-05 15:06 | 48.36281 | 11.80362 | 1475 ft | 22 kts | 83° |
| 2026-05-05 15:06 | 48.36299 | 11.80585 | 1485 ft | 21 kts | 83° |
| 2026-05-05 15:06 | 48.36316 | 11.80804 | 1481 ft | 21 kts | 83° |
| 2026-05-05 15:07 | 48.36334 | 11.81019 | 1485 ft | 21 kts | 83° |
| 2026-05-05 15:07 | 48.36349 | 11.81230 | 1480 ft | 20 kts | 83° |
| 2026-05-05 15:07 | 48.36365 | 11.81437 | 1485 ft | 20 kts | 83° |
| 2026-05-05 15:07 | 48.36381 | 11.81642 | 1476 ft | 20 kts | 83° |
| 2026-05-05 15:08 | 48.36396 | 11.81835 | 1485 ft | 16 kts | 83° |
| 2026-05-05 15:08 | 48.36400 | 11.81955 | 1485 ft | 9 kts | 81° |
| 2026-05-05 15:08 | 48.36442 | 11.82002 | 1477 ft | 8 kts | 4° |
| 2026-05-05 15:08 | 48.36511 | 11.81993 | 1482 ft | 12 kts | 355° |
| 2026-05-05 15:09 | 48.36591 | 11.81981 | 1482 ft | 11 kts | 353° |
| 2026-05-05 15:09 | 48.36657 | 11.81966 | 1479 ft | 7 kts | 339° |
| 2026-05-05 15:09 | 48.36671 | 11.81910 | 1481 ft | 6 kts | 264° |
| 2026-05-05 15:09 | 48.36667 | 11.81852 | 1472 ft | 5 kts | 264° |
| 2026-05-05 15:10 | 48.36662 | 11.81787 | 1480 ft | 15 kts | 264° |
| 2026-05-05 15:10 | 48.36623 | 11.81259 | 1475 ft | 85 kts | 263° |
| 2026-05-05 15:10 | 48.36531 | 11.80070 | 1486 ft | 142 kts | 263° |
| 2026-05-05 15:10 | 48.36400 | 11.78358 | 1520 ft | 183 kts | 264° |
| 2026-05-05 15:11 | 48.36258 | 11.76468 | 2203 ft | 180 kts | 264° |
| 2026-05-05 15:11 | 48.36108 | 11.74597 | 2931 ft | 183 kts | 264° |
| 2026-05-05 15:11 | 48.35948 | 11.72597 | 3254 ft | 203 kts | 263° |
| 2026-05-05 15:11 | 48.35766 | 11.70384 | 3496 ft | 222 kts | 263° |
| 2026-05-05 15:12 | 48.35567 | 11.68053 | 4101 ft | 227 kts | 262° |
| 2026-05-05 15:12 | 48.35372 | 11.65705 | 4651 ft | 236 kts | 264° |
| 2026-05-05 15:12 | 48.35184 | 11.63146 | 4904 ft | 258 kts | 264° |
| 2026-05-05 15:12 | 48.34993 | 11.60404 | 5422 ft | 268 kts | 264° |
| 2026-05-05 15:13 | 48.34797 | 11.57596 | 6125 ft | 272 kts | 263° |
| 2026-05-05 15:13 | 48.34596 | 11.54748 | 6846 ft | 277 kts | 263° |
| 2026-05-05 15:13 | 48.34386 | 11.51854 | 7644 ft | 278 kts | 262° |
| 2026-05-05 15:13 | 48.34175 | 11.48962 | 8455 ft | 280 kts | 261° |
| 2026-05-05 15:14 | 48.33960 | 11.46039 | 9255 ft | 283 kts | 262° |
| 2026-05-05 15:14 | 48.33742 | 11.43092 | 9996 ft | 285 kts | 262° |
| 2026-05-05 15:14 | 48.33518 | 11.40116 | 10613 ft | 288 kts | 262° |
| 2026-05-05 15:14 | 48.33291 | 11.37117 | 11267 ft | 290 kts | 261° |
| 2026-05-05 15:15 | 48.33063 | 11.34104 | 11922 ft | 291 kts | 261° |
| 2026-05-05 15:15 | 48.32833 | 11.31070 | 12557 ft | 293 kts | 261° |
| 2026-05-05 15:15 | 48.32603 | 11.28015 | 13192 ft | 295 kts | 261° |
| 2026-05-05 15:15 | 48.32549 | 11.24914 | 13784 ft | 301 kts | 274° |
| 2026-05-05 15:16 | 48.33056 | 11.21840 | 14325 ft | 308 kts | 289° |
| 2026-05-05 15:16 | 48.34141 | 11.18989 | 14479 ft | 331 kts | 306° |
| 2026-05-05 15:16 | 48.35791 | 11.16368 | 14615 ft | 350 kts | 311° |
| 2026-05-05 15:16 | 48.37442 | 11.13668 | 14757 ft | 361 kts | 302° |
| 2026-05-05 15:17 | 48.38640 | 11.10346 | 15053 ft | 363 kts | 291° |
| 2026-05-05 15:17 | 48.39690 | 11.06891 | 15172 ft | 363 kts | 291° |
| 2026-05-05 15:17 | 48.40730 | 11.03424 | 15296 ft | 364 kts | 291° |
| 2026-05-05 15:17 | 48.41771 | 10.99935 | 15422 ft | 365 kts | 291° |
| 2026-05-05 15:18 | 48.42808 | 10.96450 | 15538 ft | 366 kts | 291° |
| 2026-05-05 15:18 | 48.43850 | 10.92950 | 15672 ft | 367 kts | 291° |
| 2026-05-05 15:18 | 48.44894 | 10.89441 | 15802 ft | 368 kts | 291° |
| 2026-05-05 15:18 | 48.45940 | 10.85913 | 15842 ft | 368 kts | 291° |
| 2026-05-05 15:19 | 48.46984 | 10.82392 | 15844 ft | 367 kts | 291° |
| 2026-05-05 15:19 | 48.48024 | 10.78882 | 15838 ft | 367 kts | 290° |
| 2026-05-05 15:19 | 48.49061 | 10.75373 | 15835 ft | 367 kts | 290° |
| 2026-05-05 15:19 | 48.50098 | 10.71861 | 15839 ft | 367 kts | 290° |
| 2026-05-05 15:20 | 48.51119 | 10.68393 | 15841 ft | 367 kts | 290° |
| 2026-05-05 15:20 | 48.52155 | 10.64878 | 15862 ft | 367 kts | 290° |
| 2026-05-05 15:20 | 48.53193 | 10.61363 | 15849 ft | 367 kts | 290° |
| 2026-05-05 15:20 | 48.54229 | 10.57849 | 15852 ft | 367 kts | 290° |
| 2026-05-05 15:21 | 48.55263 | 10.54331 | 15858 ft | 367 kts | 290° |
| 2026-05-05 15:21 | 48.56295 | 10.50805 | 15864 ft | 368 kts | 290° |
| 2026-05-05 15:21 | 48.57323 | 10.47292 | 15717 ft | 362 kts | 290° |
| 2026-05-05 15:21 | 48.58325 | 10.43873 | 15476 ft | 351 kts | 291° |
| 2026-05-05 15:22 | 48.59298 | 10.40551 | 15225 ft | 340 kts | 290° |
| 2026-05-05 15:22 | 48.60240 | 10.37335 | 14980 ft | 330 kts | 290° |
| 2026-05-05 15:22 | 48.61157 | 10.34194 | 14623 ft | 325 kts | 290° |
| 2026-05-05 15:22 | 48.62059 | 10.31086 | 14237 ft | 321 kts | 290° |
| 2026-05-05 15:23 | 48.62949 | 10.28014 | 13858 ft | 317 kts | 290° |
| 2026-05-05 15:23 | 48.63829 | 10.24978 | 13460 ft | 314 kts | 290° |
| 2026-05-05 15:23 | 48.64697 | 10.21975 | 13075 ft | 309 kts | 290° |
| 2026-05-05 15:23 | 48.65551 | 10.19013 | 12706 ft | 305 kts | 290° |
| 2026-05-05 15:24 | 48.66282 | 10.16007 | 12337 ft | 306 kts | 284° |
| 2026-05-05 15:24 | 48.66946 | 10.12933 | 11818 ft | 308 kts | 284° |
| 2026-05-05 15:24 | 48.67603 | 10.09889 | 11320 ft | 309 kts | 284° |
| 2026-05-05 15:24 | 48.68274 | 10.06806 | 10821 ft | 309 kts | 284° |
| 2026-05-05 15:25 | 48.68948 | 10.03720 | 10336 ft | 309 kts | 284° |
| 2026-05-05 15:25 | 48.69618 | 10.00639 | 9859 ft | 308 kts | 284° |
| 2026-05-05 15:25 | 48.70285 | 9.97563 | 9334 ft | 308 kts | 284° |
| 2026-05-05 15:25 | 48.70953 | 9.94490 | 8824 ft | 307 kts | 284° |
| 2026-05-05 15:26 | 48.71610 | 9.91412 | 8300 ft | 306 kts | 284° |
| 2026-05-05 15:26 | 48.72251 | 9.88349 | 7790 ft | 305 kts | 284° |
| 2026-05-05 15:26 | 48.72880 | 9.85291 | 7293 ft | 304 kts | 284° |
| 2026-05-05 15:26 | 48.73358 | 9.82185 | 6801 ft | 302 kts | 276° |
| 2026-05-05 15:27 | 48.73624 | 9.79024 | 6316 ft | 303 kts | 274° |
| 2026-05-05 15:27 | 48.73867 | 9.75860 | 5807 ft | 302 kts | 274° |
| 2026-05-05 15:27 | 48.74097 | 9.72708 | 5359 ft | 300 kts | 274° |
| 2026-05-05 15:27 | 48.74323 | 9.69624 | 5215 ft | 290 kts | 275° |
| 2026-05-05 15:28 | 48.74539 | 9.66628 | 5044 ft | 284 kts | 274° |
| 2026-05-05 15:28 | 48.74749 | 9.63675 | 4792 ft | 279 kts | 274° |
| 2026-05-05 15:28 | 48.74947 | 9.60797 | 4546 ft | 271 kts | 274° |
| 2026-05-05 15:28 | 48.75142 | 9.58007 | 4395 ft | 260 kts | 274° |
| 2026-05-05 15:29 | 48.75297 | 9.55385 | 4348 ft | 245 kts | 266° |
| 2026-05-05 15:29 | 48.74917 | 9.52947 | 4296 ft | 229 kts | 246° |
| 2026-05-05 15:29 | 48.74379 | 9.50770 | 4248 ft | 214 kts | 251° |
| 2026-05-05 15:29 | 48.73970 | 9.48710 | 4152 ft | 199 kts | 252° |
| 2026-05-05 15:30 | 48.73607 | 9.46769 | 4084 ft | 187 kts | 253° |
| 2026-05-05 15:30 | 48.73253 | 9.44881 | 3962 ft | 186 kts | 252° |
| 2026-05-05 15:30 | 48.72904 | 9.43013 | 3728 ft | 182 kts | 253° |
| 2026-05-05 15:30 | 48.72562 | 9.41189 | 3499 ft | 180 kts | 253° |
| 2026-05-05 15:31 | 48.72222 | 9.39373 | 3254 ft | 180 kts | 253° |
| 2026-05-05 15:31 | 48.71880 | 9.37552 | 3019 ft | 175 kts | 254° |
| 2026-05-05 15:31 | 48.71560 | 9.35845 | 2775 ft | 164 kts | 253° |
| 2026-05-05 15:31 | 48.71260 | 9.34247 | 2556 ft | 154 kts | 254° |
| 2026-05-05 15:32 | 48.70973 | 9.32725 | 2365 ft | 148 kts | 255° |
| 2026-05-05 15:32 | 48.70690 | 9.31222 | 2158 ft | 148 kts | 255° |
| 2026-05-05 15:32 | 48.70406 | 9.29715 | 1943 ft | 150 kts | 255° |
| 2026-05-05 15:32 | 48.70214 | 9.28703 | 1791 ft | 151 kts | 255° |
| 2026-05-05 15:33 | 48.69826 | 9.26633 | 1505 ft | 155 kts | 254° |
| 2026-05-05 15:33 | 48.69526 | 9.25047 | 1350 ft | 158 kts | 255° |
| 2026-05-05 15:33 | 48.69228 | 9.23471 | 1208 ft | 144 kts | 254° |
| 2026-05-05 15:33 | 48.69002 | 9.22267 | 1234 ft | 96 kts | 254° |
| 2026-05-05 15:34 | 48.68864 | 9.21545 | 1252 ft | 47 kts | 254° |
| 2026-05-05 15:34 | 48.68816 | 9.21229 | 1264 ft | 25 kts | 267° |
| 2026-05-05 15:34 | 48.68835 | 9.20983 | 1267 ft | 21 kts | 284° |
| 2026-05-05 15:34 | 48.68861 | 9.20830 | 1271 ft | 6 kts | 284° |
| 2026-05-05 15:35 | 48.68861 | 9.20826 | 1271 ft | 0 kts | 284° |
| 2026-05-05 15:35 | 48.68865 | 9.20804 | 1272 ft | 6 kts | 284° |
| 2026-05-05 15:35 | 48.68873 | 9.20673 | 1276 ft | 10 kts | 258° |
| 2026-05-05 15:35 | 48.68862 | 9.20606 | 1277 ft | 9 kts | 254° |
| 2026-05-05 15:36 | 48.68845 | 9.20517 | 1282 ft | 9 kts | 254° |
| 2026-05-05 15:36 | 48.68827 | 9.20423 | 1283 ft | 9 kts | 254° |
| 2026-05-05 15:36 | 48.68811 | 9.20338 | 1283 ft | 8 kts | 254° |
| 2026-05-05 15:36 | 48.68793 | 9.20244 | 1286 ft | 11 kts | 253° |
| 2026-05-05 15:37 | 48.68772 | 9.20136 | 1288 ft | 10 kts | 253° |
| 2026-05-05 15:37 | 48.68757 | 9.20041 | 1290 ft | 8 kts | 266° |
| 2026-05-05 15:37 | 48.68762 | 9.19963 | 1293 ft | 7 kts | 277° |
| 2026-05-05 15:37 | 48.68762 | 9.19881 | 1296 ft | 9 kts | 261° |
| 2026-05-05 15:38 | 48.68746 | 9.19784 | 1298 ft | 10 kts | 256° |
| 2026-05-05 15:38 | 48.68724 | 9.19670 | 1301 ft | 12 kts | 252° |
| 2026-05-05 15:38 | 48.68698 | 9.19539 | 1305 ft | 14 kts | 253° |
| 2026-05-05 15:38 | 48.68671 | 9.19398 | 1309 ft | 13 kts | 254° |
| 2026-05-05 15:39 | 48.68648 | 9.19274 | 1312 ft | 10 kts | 254° |
| 2026-05-05 15:39 | 48.68652 | 9.19188 | 1315 ft | 7 kts | 306° |
| 2026-05-05 15:39 | 48.68695 | 9.19154 | 1317 ft | 8 kts | 341° |
| 2026-05-05 15:39 | 48.68752 | 9.19154 | 1318 ft | 9 kts | 30° |
| 2026-05-05 15:40 | 48.68783 | 9.19254 | 1315 ft | 13 kts | 73° |
| 2026-05-05 15:40 | 48.68804 | 9.19361 | 1314 ft | 7 kts | 73° |
| 2026-05-05 15:40 | 48.68834 | 9.19382 | 1314 ft | 5 kts | 353° |
| 2026-05-05 15:40 | 48.68862 | 9.19369 | 1315 ft | 4 kts | 343° |
| 2026-05-05 15:41 | 48.68879 | 9.19361 | 1315 ft | 0 kts | 343° |
| 2026-05-05 15:41 | 48.68880 | 9.19361 | 1315 ft | 0 kts | 343° |